Time;durP1;ratioP1;P1;durP2;ratioP2;P2;SDS_P1;SDS_P2;PMS_P1;PMS_P2;Temp;Humidity;BMP_temperature;BMP_pressure;BME280_temperature;BME280_humidity;BME280_pressure;Samples;Min_cycle;Max_cycle;Signal;HPM_P1;HPM_P2
2021/06/19 00:01:18;;;;;;;5.43;3.42;;;16.40;99.90;;;16.11;90.48;101246.31;4137915;28;20039;-68
2021/06/19 00:03:20;;;;;;;7.80;3.80;;;16.40;99.90;;;16.15;90.10;101242.31;4152793;28;20026;-68
2021/06/19 00:05:21;;;;;;;6.68;3.65;;;16.40;99.90;;;16.29;88.88;101227.38;4137790;28;20506;-68
2021/06/19 00:07:22;;;;;;;4.95;2.92;;;16.40;99.90;;;16.16;89.89;101214.66;4136699;28;20029;-68
2021/06/19 00:09:23;;;;;;;2.97;2.40;;;16.40;99.90;;;15.98;90.80;101214.16;4137742;28;20030;-68
2021/06/19 00:11:24;;;;;;;7.05;3.63;;;16.30;99.90;;;16.05;91.14;101210.63;4137689;28;20557;-68
2021/06/19 00:13:25;;;;;;;4.97;3.13;;;16.30;99.90;;;15.88;91.66;101219.75;4137285;28;20026;-68
2021/06/19 00:15:26;;;;;;;6.50;2.78;;;16.20;99.90;;;15.82;92.17;101220.47;4137620;28;20023;-68
2021/06/19 00:17:27;;;;;;;4.78;2.85;;;16.20;99.90;;;15.89;92.17;101215.22;4136456;28;20022;-68
2021/06/19 00:19:28;;;;;;;5.28;2.85;;;16.20;99.90;;;15.89;92.15;101212.56;4137543;28;20504;-68
2021/06/19 00:21:29;;;;;;;3.85;2.40;;;16.10;99.90;;;15.75;92.31;101200.91;4152420;28;20117;-68
2021/06/19 00:23:30;;;;;;;8.63;3.17;;;16.10;99.90;;;15.90;90.77;101195.63;4137414;28;20027;-68
2021/06/19 00:25:31;;;;;;;6.53;3.40;;;16.10;99.90;;;15.91;91.18;101202.59;4168907;28;20029;-67
2021/06/19 00:27:32;;;;;;;4.95;2.90;;;16.10;99.90;;;15.88;90.72;101193.16;4136223;28;20065;-67
2021/06/19 00:29:34;;;;;;;4.10;2.85;;;16.20;99.90;;;15.83;91.45;101181.41;4135923;28;20050;-68
2021/06/19 00:31:35;;;;;;;4.15;2.63;;;16.10;99.90;;;15.77;91.74;101185.56;4137249;28;20105;-68
2021/06/19 00:33:36;;;;;;;3.75;3.05;;;16.10;99.90;;;15.75;92.17;101197.41;4136123;28;20030;-68
2021/06/19 00:35:37;;;;;;;6.28;3.08;;;16.10;99.90;;;15.71;92.57;101196.91;4152249;28;20036;-68
2021/06/19 00:37:38;;;;;;;6.43;2.90;;;16.00;99.90;;;15.72;92.55;101201.25;4137307;28;20425;-68
2021/06/19 00:39:39;;;;;;;5.45;3.13;;;16.00;99.90;;;15.60;93.32;101199.19;4135764;28;20052;-68
2021/06/19 00:41:40;;;;;;;3.63;2.80;;;15.90;99.90;;;15.72;91.71;101193.28;4136272;28;20026;-68
2021/06/19 00:43:41;;;;;;;4.93;2.85;;;15.90;99.90;;;15.78;92.02;101197.03;4135438;28;20060;-68
2021/06/19 00:45:42;;;;;;;5.60;2.53;;;16.00;99.90;;;15.77;91.76;101182.91;4136598;28;20030;-68
2021/06/19 00:47:43;;;;;;;3.65;2.47;;;16.00;99.90;;;15.61;92.74;101177.75;4136462;28;20397;-68
2021/06/19 00:49:44;;;;;;;4.03;2.60;;;15.90;99.90;;;15.66;92.79;101180.69;4137115;28;20065;-68
2021/06/19 00:51:45;;;;;;;8.18;3.47;;;15.90;99.90;;;15.73;91.88;101178.16;4137111;28;20552;-68
2021/06/19 00:53:46;;;;;;;6.47;3.00;;;16.00;99.90;;;15.67;93.12;101173.53;4135728;28;20026;-68
2021/06/19 00:55:47;;;;;;;3.92;2.30;;;15.90;99.90;;;15.58;92.39;101177.25;4136759;28;20053;-68
2021/06/19 00:57:49;;;;;;;5.25;2.60;;;16.00;99.90;;;15.60;92.44;101164.59;4136748;28;20061;-67
2021/06/19 00:59:50;;;;;;;3.63;2.75;;;15.90;99.90;;;15.48;92.91;101165.03;4135786;28;20548;-68
2021/06/19 01:01:52;;;;;;;5.10;2.70;;;15.90;99.90;;;15.70;92.12;101159.88;4135658;28;20085;-68
2021/06/19 01:03:54;;;;;;;4.20;2.55;;;15.90;99.90;;;15.72;91.71;101144.56;4119394;28;20027;-67
2021/06/19 01:05:54;;;;;;;5.18;3.22;;;16.00;99.90;;;15.75;91.80;101145.03;4135615;28;20042;-68
2021/06/19 01:07:57;;;;;;;3.42;2.67;;;16.00;99.90;;;15.71;91.75;101127.78;4136720;28;20079;-68
2021/06/19 01:09:58;;;;;;;4.75;2.25;;;16.00;99.90;;;15.60;93.66;101132.69;4135522;28;20101;-68
2021/06/19 01:11:59;;;;;;;5.43;3.00;;;15.90;99.90;;;15.64;92.95;101128.69;4136635;28;20025;-68
2021/06/19 01:14:00;;;;;;;4.15;2.72;;;15.90;99.90;;;15.65;92.50;101122.38;4136432;28;20046;-68
2021/06/19 01:16:01;;;;;;;3.80;2.90;;;15.90;99.90;;;15.65;92.48;101120.50;4136655;28;20086;-68
2021/06/19 01:18:02;;;;;;;6.95;3.47;;;15.90;99.90;;;15.64;92.25;101110.06;4135291;28;20125;-68
2021/06/19 01:20:16;;;;;;;5.60;2.72;;;15.90;99.90;;;15.62;92.49;101106.78;4136529;28;20026;-67
2021/06/19 01:22:17;;;;;;;7.40;3.38;;;15.90;99.90;;;15.52;93.23;101106.19;4135578;28;20026;-68
2021/06/19 01:24:18;;;;;;;5.90;2.58;;;15.90;99.90;;;15.52;94.01;101120.31;4136484;28;20520;-68
2021/06/19 01:26:22;;;;;;;3.92;2.90;;;15.80;99.90;;;15.57;92.90;101117.94;4136428;28;20042;-68
2021/06/19 01:28:23;;;;;;;5.45;3.38;;;15.80;99.90;;;15.58;93.11;101121.41;4134838;28;20037;-68
2021/06/19 01:30:28;;;;;;;7.75;3.05;;;15.80;99.90;;;15.31;94.03;101114.78;4136488;28;20027;-68
2021/06/19 01:32:35;;;;;;;4.80;3.28;;;15.80;99.90;;;15.36;94.05;101115.06;4136634;28;20027;-68
2021/06/19 01:34:36;;;;;;;3.33;2.90;;;15.70;99.90;;;15.30;94.72;101119.28;4136329;28;20030;-68
2021/06/19 01:36:37;;;;;;;6.55;3.25;;;15.60;99.90;;;15.30;94.34;101113.13;4136496;28;20475;-68
2021/06/19 01:38:44;;;;;;;5.03;3.40;;;15.60;99.90;;;15.40;93.94;101125.19;4136223;28;20093;-68
2021/06/19 01:40:45;;;;;;;5.20;3.28;;;15.60;99.90;;;15.46;93.26;101108.53;4136389;28;20037;-68
2021/06/19 01:42:50;;;;;;;6.18;3.47;;;15.60;99.90;;;15.23;93.70;101118.31;4135861;28;20394;-68
2021/06/19 01:44:50;;;;;;;7.45;3.30;;;15.60;99.90;;;15.22;94.08;101106.06;4136412;28;20025;-68
2021/06/19 01:46:51;;;;;;;5.53;3.13;;;15.50;99.90;;;15.09;94.84;101105.78;4136292;28;20521;-68
2021/06/19 01:48:52;;;;;;;5.97;3.63;;;15.50;99.90;;;15.20;94.20;101105.38;4136133;28;20038;-68
2021/06/19 01:50:53;;;;;;;7.88;4.38;;;15.50;99.90;;;15.33;93.93;101112.78;4134892;28;20026;-68
2021/06/19 01:52:54;;;;;;;4.70;3.95;;;15.50;99.90;;;15.29;94.00;101114.16;4136288;28;20026;-68
2021/06/19 01:54:55;;;;;;;6.32;3.88;;;15.60;99.90;;;15.30;93.86;101108.63;4151215;28;20184;-67
2021/06/19 01:56:56;;;;;;;6.53;4.50;;;15.60;99.90;;;15.36;93.72;101120.38;4134745;28;20023;-68
2021/06/19 01:58:57;;;;;;;6.78;3.90;;;15.70;99.90;;;15.14;94.23;101118.56;4135617;28;20374;-67
2021/06/19 02:00:58;;;;;;;6.55;4.20;;;15.60;99.90;;;15.01;96.03;101113.84;4136134;28;20022;-68
2021/06/19 02:02:59;;;;;;;5.85;3.72;;;15.50;99.90;;;15.10;95.18;101120.75;4134976;28;20038;-67
2021/06/19 02:05:00;;;;;;;6.28;3.97;;;15.40;99.90;;;15.32;93.49;101119.91;4134828;28;20101;-68
2021/06/19 02:07:01;;;;;;;5.28;3.67;;;15.50;99.90;;;15.39;93.38;101115.56;4135950;28;20045;-68
2021/06/19 02:09:08;;;;;;;6.82;3.95;;;15.50;99.90;;;15.38;93.65;101127.19;4134811;28;20060;-68
2021/06/19 02:11:09;;;;;;;6.07;3.95;;;15.50;99.90;;;15.30;93.59;101124.59;4136002;28;20118;-68
2021/06/19 02:13:11;;;;;;;7.05;3.70;;;15.50;99.90;;;15.13;94.95;101120.41;4135669;28;20055;-68
2021/06/19 02:15:12;;;;;;;7.43;4.03;;;15.50;99.90;;;15.14;95.12;101122.03;4134568;28;20038;-68
2021/06/19 02:17:13;;;;;;;6.80;3.63;;;15.50;99.90;;;15.16;94.81;101136.00;4136003;28;20027;-68
2021/06/19 02:19:14;;;;;;;8.52;4.15;;;15.50;99.90;;;15.02;94.91;101130.59;4136003;28;20030;-68
2021/06/19 02:21:16;;;;;;;5.18;4.40;;;15.40;99.90;;;15.16;94.13;101130.69;4135868;28;20129;-68
2021/06/19 02:23:18;;;;;;;6.32;3.78;;;15.40;99.90;;;15.14;94.39;101124.69;4134536;28;20462;-68
2021/06/19 02:25:23;;;;;;;7.10;3.95;;;15.40;99.90;;;15.18;94.14;101115.38;4136002;28;20486;-68
2021/06/19 02:27:24;;;;;;;5.10;3.50;;;15.40;99.90;;;15.08;95.03;101114.78;4134696;28;20108;-68
2021/06/19 02:29:25;;;;;;;6.75;3.80;;;15.40;99.90;;;15.13;95.10;101109.78;4134248;28;20038;-68
2021/06/19 02:31:26;;;;;;;8.05;3.70;;;15.40;99.90;;;15.33;93.10;101102.97;4135708;28;20027;-68
2021/06/19 02:33:27;;;;;;;4.45;3.17;;;15.40;99.90;;;15.23;93.71;101089.06;4135946;28;20053;-68
2021/06/19 02:35:31;;;;;;;3.53;3.22;;;15.50;99.90;;;15.23;94.90;101099.72;4134758;28;20102;-68
2021/06/19 02:37:32;;;;;;;5.20;3.88;;;15.50;99.90;;;15.39;92.96;101094.28;4135703;28;20027;-68
2021/06/19 02:39:33;;;;;;;7.45;3.88;;;15.50;99.90;;;15.24;92.93;101096.06;4135451;28;20050;-68
2021/06/19 02:41:34;;;;;;;5.00;3.03;;;15.50;99.90;;;15.12;94.32;101118.72;4134740;28;20078;-68
2021/06/19 02:43:35;;;;;;;6.60;4.38;;;15.40;99.90;;;15.17;94.17;101118.22;4150374;28;20147;-68
2021/06/19 02:45:37;;;;;;;6.88;4.85;;;15.50;99.90;;;15.29;92.67;101106.97;4135832;28;20034;-68
2021/06/19 02:47:51;;;;;;;5.78;3.80;;;15.50;99.90;;;15.33;93.19;101107.44;4134357;28;20033;-68
2021/06/19 02:49:52;;;;;;;5.25;3.67;;;15.50;99.90;;;15.27;93.58;101101.03;4135757;28;20037;-68
2021/06/19 02:51:52;;;;;;;4.75;4.03;;;15.50;99.90;;;15.25;93.68;101100.38;4135703;28;20030;-68
2021/06/19 02:53:53;;;;;;;7.55;4.47;;;15.50;99.90;;;15.02;94.31;101099.56;4134461;28;20023;-67
2021/06/19 02:55:55;;;;;;;6.57;3.22;;;15.40;99.90;;;15.06;94.84;101092.88;4135548;28;20030;-68
2021/06/19 02:57:56;;;;;;;4.50;4.00;;;15.40;99.90;;;15.03;95.02;101095.88;4135405;28;20054;-68
2021/06/19 02:59:57;;;;;;;4.90;3.40;;;15.40;99.90;;;15.04;95.28;101078.94;4135612;28;20030;-68
2021/06/19 03:01:58;;;;;;;5.38;4.22;;;15.30;99.90;;;14.93;95.21;101077.50;4135602;28;20069;-68
2021/06/19 03:03:59;;;;;;;10.43;3.80;;;15.30;99.90;;;14.88;94.90;101071.91;4135525;28;20035;-68
2021/06/19 03:06:01;;;;;;;7.80;5.15;;;15.20;99.90;;;14.93;94.57;101066.88;4135757;28;20026;-68
2021/06/19 03:08:04;;;;;;;6.00;4.28;;;15.20;99.90;;;15.02;94.38;101054.38;4118218;28;20047;-68
2021/06/19 03:10:07;;;;;;;5.43;3.65;;;15.30;99.90;;;15.02;94.34;101062.34;4136003;28;20081;-68
2021/06/19 03:12:09;;;;;;;5.32;3.72;;;15.30;99.90;;;14.90;94.84;101053.16;4121234;28;20114;-68
2021/06/19 03:14:10;;;;;;;7.47;4.53;;;15.30;99.90;;;15.01;94.39;101066.00;4120956;28;20046;-68
2021/06/19 03:16:11;;;;;;;6.90;4.55;;;15.30;99.90;;;15.01;94.25;101084.59;4137491;28;20054;-67
2021/06/19 03:18:11;;;;;;;9.13;5.43;;;15.30;99.90;;;15.13;93.57;101096.47;4137479;28;20042;-68
2021/06/19 03:20:15;;;;;;;5.85;5.25;;;15.30;99.90;;;15.11;93.87;101095.84;4138535;28;20034;-68
2021/06/19 03:22:16;;;;;;;5.60;4.78;;;15.30;99.90;;;15.10;93.38;101080.88;4138716;28;20081;-68
2021/06/19 03:24:17;;;;;;;6.28;4.75;;;15.30;99.90;;;15.19;93.44;101068.38;4137364;28;20030;-68
2021/06/19 03:26:18;;;;;;;6.60;4.57;;;15.40;99.90;;;15.13;93.05;101048.66;4169874;28;20072;-67
2021/06/19 03:28:19;;;;;;;5.72;4.55;;;15.40;99.90;;;15.19;92.53;101037.31;4136776;28;20073;-68
2021/06/19 03:30:21;;;;;;;5.95;5.03;;;15.40;99.90;;;15.10;92.91;101022.44;4138446;28;20023;-68
2021/06/19 03:32:22;;;;;;;7.00;4.32;;;15.40;99.90;;;15.11;93.60;101039.22;4137182;28;20113;-68
2021/06/19 03:34:22;;;;;;;8.07;5.47;;;15.50;99.90;;;15.02;94.19;101049.06;4137160;28;20030;-67
2021/06/19 03:36:23;;;;;;;7.70;5.53;;;15.50;99.90;;;14.95;94.94;101038.31;4138152;28;20026;-68
2021/06/19 03:38:24;;;;;;;8.27;5.10;;;15.50;99.90;;;14.92;95.26;101024.56;4137179;28;20049;-67
2021/06/19 03:40:28;;;;;;;6.10;4.55;;;15.60;99.90;;;14.90;96.42;101019.41;4137962;28;20112;-68
2021/06/19 03:42:29;;;;;;;8.18;5.70;;;15.50;99.90;;;15.03;95.35;101034.75;4138122;28;20033;-67
2021/06/19 03:44:30;;;;;;;7.05;5.13;;;15.50;99.90;;;15.04;95.33;101049.72;4137703;28;20486;-68
2021/06/19 03:46:31;;;;;;;8.13;5.18;;;15.50;99.90;;;14.98;96.14;101062.88;4138202;28;20382;-67
2021/06/19 03:48:32;;;;;;;7.57;5.35;;;15.40;99.90;;;14.96;95.49;101061.22;4138046;28;20034;-67
2021/06/19 03:50:34;;;;;;;6.95;5.00;;;15.40;99.90;;;15.00;95.46;101074.97;4136938;28;20065;-67
2021/06/19 03:52:35;;;;;;;6.88;5.28;;;15.40;99.90;;;15.01;95.30;101067.84;4138186;28;20029;-68
2021/06/19 03:54:40;;;;;;;10.65;6.30;;;15.40;99.90;;;15.10;94.97;101064.94;4138135;28;20053;-68
2021/06/19 03:56:42;;;;;;;7.18;5.88;;;15.50;99.90;;;15.11;95.07;101066.63;4136939;28;20030;-68
2021/06/19 03:58:43;;;;;;;8.00;4.68;;;15.50;99.90;;;15.03;96.06;101071.13;4120297;28;20031;-68
2021/06/19 04:00:44;;;;;;;8.18;5.43;;;15.50;99.90;;;15.14;94.29;101052.94;4136361;28;20038;-68
2021/06/19 04:02:45;;;;;;;5.85;4.50;;;15.50;99.90;;;15.15;94.90;101057.25;4136704;28;20429;-68
2021/06/19 04:04:47;;;;;;;5.90;4.32;;;15.50;99.90;;;15.12;95.82;101043.50;4137901;28;20053;-68
2021/06/19 04:06:47;;;;;;;7.28;4.93;;;15.50;99.90;;;15.26;94.20;101050.72;4136659;28;20092;-67
2021/06/19 04:08:48;;;;;;;9.15;5.57;;;15.60;99.90;;;15.35;93.29;101074.38;4152565;28;20050;-68
2021/06/19 04:10:49;;;;;;;8.85;5.75;;;15.60;99.90;;;15.35;94.36;101079.69;4137901;28;20062;-68
2021/06/19 04:12:50;;;;;;;7.05;5.15;;;15.60;99.90;;;15.39;94.14;101080.16;4137506;28;20022;-68
2021/06/19 04:14:52;;;;;;;9.35;5.82;;;15.70;99.90;;;15.27;93.67;101063.81;4137723;28;20026;-68
2021/06/19 04:16:53;;;;;;;5.45;4.63;;;15.70;99.90;;;15.29;94.62;101067.09;4136433;28;20479;-68
2021/06/19 04:18:54;;;;;;;8.40;5.40;;;15.70;99.90;;;15.38;93.25;101059.91;4136554;28;20042;-68
2021/06/19 04:20:54;;;;;;;8.30;5.63;;;15.70;99.90;;;15.48;92.78;101050.69;4136726;28;20093;-68
2021/06/19 04:22:55;;;;;;;7.18;4.55;;;15.70;99.90;;;15.48;93.06;101053.38;4136463;28;20049;-68
2021/06/19 04:24:56;;;;;;;8.90;5.45;;;15.80;99.90;;;15.44;94.08;101062.66;4137410;28;20027;-68
2021/06/19 04:26:58;;;;;;;6.78;5.95;;;15.90;99.90;;;15.07;93.96;101064.47;4136465;28;20034;-68
2021/06/19 04:28:59;;;;;;;7.20;5.30;;;15.70;99.90;;;15.10;94.92;101075.56;4136007;28;20029;-68
2021/06/19 04:31:00;;;;;;;7.03;5.63;;;15.70;99.90;;;14.99;95.35;101070.69;4137622;28;20030;-68
2021/06/19 04:33:03;;;;;;;6.78;4.88;;;15.60;99.90;;;15.06;95.73;101058.31;4137440;28;20019;-68
2021/06/19 04:35:05;;;;;;;9.50;5.22;;;15.50;99.90;;;15.16;95.40;101042.16;4136481;28;20510;-67
2021/06/19 04:37:09;;;;;;;6.03;5.38;;;15.60;99.90;;;15.34;93.98;101040.84;4136338;28;20058;-68
2021/06/19 04:39:10;;;;;;;7.72;5.38;;;15.60;99.90;;;15.44;93.17;101044.06;4136100;28;20062;-68
2021/06/19 04:41:23;;;;;;;8.85;5.53;;;15.70;99.90;;;15.42;93.15;101048.72;4137399;28;20030;-68
2021/06/19 04:43:28;;;;;;;7.60;5.55;;;15.80;99.90;;;15.47;92.68;101053.56;4137116;28;20482;-68
2021/06/19 04:45:30;;;;;;;7.93;4.88;;;15.80;99.90;;;15.46;92.91;101059.84;4137389;28;20084;-68
2021/06/19 04:47:33;;;;;;;7.50;4.90;;;15.80;99.90;;;15.34;94.62;101062.09;4136009;28;20028;-68
2021/06/19 04:49:34;;;;;;;8.90;5.35;;;15.80;99.90;;;15.33;95.42;101073.72;4137368;28;20026;-68
2021/06/19 04:51:35;;;;;;;8.02;5.28;;;15.80;99.90;;;15.29;95.56;101083.06;4119930;28;20148;-68
2021/06/19 04:53:36;;;;;;;6.80;4.20;;;15.80;99.90;;;15.32;95.72;101074.72;4137226;28;20034;-68
2021/06/19 04:55:37;;;;;;;9.63;5.10;;;15.80;99.90;;;15.52;93.46;101074.28;4135838;28;20073;-67
2021/06/19 04:57:39;;;;;;;5.65;4.78;;;15.80;99.90;;;15.61;92.77;101067.88;4136896;28;20030;-68
2021/06/19 04:59:40;;;;;;;9.75;5.80;;;15.90;99.90;;;15.59;92.55;101065.38;4137119;28;20036;-68
2021/06/19 05:01:41;;;;;;;7.80;5.90;;;16.00;99.90;;;15.61;92.44;101089.16;4135739;28;20024;-68
2021/06/19 05:03:42;;;;;;;6.53;5.30;;;16.00;99.90;;;15.57;92.85;101066.56;4136973;28;20052;-68
2021/06/19 05:05:44;;;;;;;8.05;5.43;;;16.00;99.90;;;15.58;93.68;101079.72;4135848;28;20031;-68
2021/06/19 05:07:44;;;;;;;8.48;5.03;;;16.00;99.90;;;15.53;92.99;101065.31;4136983;28;20023;-68
2021/06/19 05:09:45;;;;;;;6.82;5.00;;;16.00;99.90;;;15.55;93.12;101076.56;4135757;28;20030;-68
2021/06/19 05:11:46;;;;;;;11.38;6.18;;;16.00;99.90;;;15.52;93.67;101084.91;4135649;28;20023;-67
2021/06/19 05:13:47;;;;;;;10.43;5.65;;;16.00;99.90;;;15.47;94.25;101078.28;4136629;28;20184;-68
2021/06/19 05:15:48;;;;;;;7.65;4.72;;;16.00;99.90;;;15.39;94.88;101074.84;4135623;28;20018;-68
2021/06/19 05:17:49;;;;;;;12.73;5.80;;;15.90;99.90;;;15.28;95.29;101077.94;4135684;28;20031;-68
2021/06/19 05:19:50;;;;;;;7.05;5.80;;;15.90;99.90;;;15.34;94.91;101072.72;4135723;28;20528;-68
2021/06/19 05:21:51;;;;;;;7.78;5.60;;;15.90;99.90;;;15.43;93.96;101060.19;4135573;28;20537;-68
2021/06/19 05:23:52;;;;;;;9.68;5.75;;;15.90;99.90;;;15.59;93.67;101069.91;4136834;28;20105;-67
2021/06/19 05:25:53;;;;;;;8.13;5.65;;;15.90;99.90;;;15.30;95.27;101059.97;4167996;28;20492;-68
2021/06/19 05:27:54;;;;;;;6.50;5.78;;;16.00;99.90;;;15.33;95.62;101048.97;4136292;28;20023;-68
2021/06/19 05:29:55;;;;;;;9.82;6.53;;;15.90;99.90;;;15.30;95.39;101030.72;4136460;28;20041;-67
2021/06/19 05:31:56;;;;;;;9.50;6.95;;;15.80;99.90;;;15.27;95.19;101023.94;4119025;28;20027;-68
2021/06/19 05:33:57;;;;;;;7.90;5.82;;;15.80;99.90;;;15.31;95.01;101024.41;4136556;28;20026;-68
2021/06/19 05:35:58;;;;;;;8.23;6.50;;;15.90;99.90;;;15.40;95.10;101029.47;4136563;28;20030;-68
2021/06/19 05:37:59;;;;;;;10.48;6.43;;;15.90;99.90;;;15.41;95.04;101025.81;4136418;28;20030;-68
2021/06/19 05:40:00;;;;;;;7.57;5.78;;;15.90;99.90;;;15.44;95.63;101029.97;4136337;28;20514;-68
2021/06/19 05:42:01;;;;;;;11.65;6.63;;;15.90;99.90;;;15.44;94.52;101020.13;4136500;28;20077;-68
2021/06/19 05:44:02;;;;;;;8.52;6.15;;;15.90;99.90;;;15.53;95.39;101012.13;4135962;28;20026;-67
2021/06/19 05:46:03;;;;;;;7.70;6.13;;;16.00;99.90;;;15.57;95.45;101024.84;4135331;28;20034;-68
2021/06/19 05:48:05;;;;;;;11.00;6.53;;;16.00;99.90;;;15.60;94.59;101027.16;4136544;28;20038;-68
2021/06/19 05:50:08;;;;;;;11.00;6.45;;;16.00;99.90;;;15.60;95.21;101029.81;4136427;28;20447;-68
2021/06/19 05:52:09;;;;;;;12.82;7.18;;;16.00;99.90;;;15.44;95.79;101027.31;4135183;28;20037;-68
2021/06/19 05:54:10;;;;;;;7.60;5.60;;;16.00;99.90;;;15.52;96.33;101016.59;4136228;28;20030;-68
2021/06/19 05:56:11;;;;;;;11.98;5.35;;;16.00;99.90;;;15.58;96.25;101005.25;4135096;28;20023;-68
2021/06/19 05:58:12;;;;;;;8.50;5.75;;;16.10;99.90;;;15.68;95.83;101005.00;4136010;28;20033;-68
2021/06/19 06:00:14;;;;;;;10.30;6.97;;;16.10;99.90;;;15.82;93.91;101001.50;4136255;28;20030;-68
2021/06/19 06:02:15;;;;;;;10.68;6.78;;;16.20;99.90;;;15.89;94.70;101024.50;4134799;28;20038;-68
2021/06/19 06:04:16;;;;;;;8.38;5.90;;;16.30;99.90;;;15.98;93.87;101025.22;4136198;28;20033;-68
2021/06/19 06:06:17;;;;;;;7.43;5.15;;;16.40;99.90;;;15.86;94.88;101026.72;4136183;28;20038;-68
2021/06/19 06:08:18;;;;;;;12.27;6.55;;;16.30;99.90;;;15.87;95.27;101015.91;4136024;28;20030;-68
2021/06/19 06:10:19;;;;;;;8.00;5.45;;;16.40;99.90;;;15.98;95.04;101027.91;4134630;28;20069;-68
2021/06/19 06:12:20;;;;;;;9.82;6.05;;;16.40;99.90;;;15.98;94.93;101028.72;4134817;28;20030;-68
2021/06/19 06:14:21;;;;;;;12.35;6.30;;;16.40;99.90;;;15.98;94.89;101034.06;4135834;28;20110;-68
2021/06/19 06:16:22;;;;;;;8.50;5.90;;;16.50;99.90;;;16.03;93.58;101021.03;4134832;28;20081;-68
2021/06/19 06:18:23;;;;;;;10.15;6.03;;;16.50;99.90;;;16.25;92.57;101019.25;4134765;28;20057;-68
2021/06/19 06:20:24;;;;;;;8.18;5.28;;;16.60;99.90;;;16.29;92.34;101009.06;4136086;28;20034;-68
2021/06/19 06:22:25;;;;;;;9.48;5.60;;;16.70;99.90;;;16.29;92.75;100998.41;4134819;28;20038;-68
2021/06/19 06:24:26;;;;;;;8.40;6.53;;;16.80;99.90;;;16.24;93.63;100969.72;4135861;28;20440;-68
2021/06/19 06:26:27;;;;;;;10.32;6.32;;;16.70;99.90;;;16.29;93.11;100967.28;4167231;28;20147;-68
2021/06/19 06:28:29;;;;;;;8.93;5.53;;;16.80;99.90;;;16.17;94.25;100947.50;4135536;28;20023;-68
2021/06/19 06:30:30;;;;;;;9.27;6.25;;;16.80;99.90;;;16.40;93.36;100961.47;4136024;28;20486;-68
2021/06/19 06:32:33;;;;;;;11.25;6.40;;;16.90;99.90;;;16.37;92.50;100969.00;4150843;28;20029;-68
2021/06/19 06:34:34;;;;;;;13.10;6.80;;;17.00;99.90;;;16.28;92.46;100978.94;4150646;28;20108;-68
2021/06/19 06:36:35;;;;;;;11.10;7.15;;;17.10;99.90;;;16.25;93.13;100989.13;4135916;28;20041;-67
2021/06/19 06:38:36;;;;;;;7.75;5.82;;;17.10;99.90;;;16.35;93.54;100982.53;4135810;28;20038;-68
2021/06/19 06:40:37;;;;;;;11.23;7.20;;;17.10;99.90;;;16.40;94.03;100984.59;4134620;28;20046;-68
2021/06/19 06:42:41;;;;;;;12.05;7.20;;;17.10;99.90;;;16.38;94.05;100997.28;4113743;28;20054;-68
2021/06/19 06:44:42;;;;;;;12.30;8.15;;;17.20;99.90;;;16.50;93.31;100996.63;4136911;28;20437;-68
2021/06/19 06:46:43;;;;;;;9.68;6.47;;;17.30;99.90;;;16.58;93.14;100987.72;4137940;28;20038;-68
2021/06/19 06:48:44;;;;;;;9.60;6.55;;;17.40;99.90;;;16.72;92.63;100997.50;4137641;28;20045;-68
2021/06/19 06:50:45;;;;;;;9.60;7.60;;;17.50;99.90;;;16.60;93.05;100988.38;4139011;28;20046;-68
2021/06/19 06:52:46;;;;;;;11.82;7.47;;;17.50;99.90;;;16.71;93.06;100987.03;4139083;28;20034;-68
2021/06/19 06:54:47;;;;;;;8.57;7.05;;;17.50;99.90;;;16.72;91.55;100978.84;4139045;28;20105;-68
2021/06/19 06:56:48;;;;;;;9.48;6.68;;;17.70;99.90;;;16.77;92.28;100995.09;4137685;28;20022;-68
2021/06/19 06:58:49;;;;;;;9.10;5.82;;;17.80;99.90;;;16.88;92.04;100999.06;4138480;28;20421;-68
2021/06/19 07:00:50;;;;;;;7.82;6.38;;;17.80;99.90;;;17.13;90.97;101003.84;4138647;28;20441;-68
2021/06/19 07:02:51;;;;;;;9.35;5.55;;;18.00;99.90;;;17.27;91.18;100998.59;4138866;28;20057;-68
2021/06/19 07:04:52;;;;;;;8.70;5.88;;;18.10;99.90;;;17.21;89.97;101005.53;4137600;28;20065;-68
2021/06/19 07:06:53;;;;;;;8.52;6.07;;;18.00;99.90;;;17.01;91.23;101004.53;4138807;28;20508;-68
2021/06/19 07:08:54;;;;;;;9.23;6.20;;;17.90;99.90;;;17.01;90.67;100992.03;4138652;28;20066;-68
2021/06/19 07:10:55;;;;;;;9.15;5.60;;;17.90;99.90;;;17.18;90.75;100995.25;4137842;28;20505;-68
2021/06/19 07:12:56;;;;;;;9.55;6.18;;;17.90;99.90;;;16.91;90.29;100988.88;4138462;28;20079;-68
2021/06/19 07:14:57;;;;;;;6.85;5.88;;;17.80;99.90;;;17.07;90.60;100995.78;4138616;28;20485;-68
2021/06/19 07:16:58;;;;;;;8.88;5.40;;;17.80;99.90;;;17.02;89.90;101001.66;4137409;28;20113;-68
2021/06/19 07:18:59;;;;;;;8.77;6.47;;;17.90;99.90;;;17.06;89.66;101008.28;4137549;28;20030;-68
2021/06/19 07:21:00;;;;;;;7.03;5.22;;;17.80;99.90;;;17.03;90.28;100995.31;4138573;28;20102;-68
2021/06/19 07:23:01;;;;;;;8.35;4.78;;;17.80;99.90;;;17.30;90.19;100993.69;4137328;28;20043;-68
2021/06/19 07:25:07;;;;;;;6.53;5.03;;;17.90;99.90;;;17.43;89.16;100983.16;4137105;28;20033;-68
2021/06/19 07:27:08;;;;;;;8.15;5.15;;;18.10;99.90;;;17.52;89.10;100991.81;4137307;28;20046;-69
2021/06/19 07:29:09;;;;;;;6.20;4.47;;;18.30;99.90;;;17.55;88.96;100972.78;4138267;28;20026;-68
2021/06/19 07:31:11;;;;;;;6.68;5.00;;;18.40;99.90;;;17.75;88.68;100970.22;4137037;28;20033;-68
2021/06/19 07:33:12;;;;;;;6.35;4.97;;;18.50;99.90;;;17.80;87.95;100981.94;4136973;28;20057;-68
2021/06/19 07:35:14;;;;;;;8.38;5.00;;;18.60;99.90;;;17.86;88.26;100970.50;4138259;28;20054;-68
2021/06/19 07:37:15;;;;;;;7.15;4.68;;;18.80;99.90;;;18.05;87.53;100972.44;4137180;28;20066;-68
2021/06/19 07:39:15;;;;;;;6.43;3.78;;;18.90;99.90;;;18.07;87.02;100954.38;4137897;28;20064;-68
2021/06/19 07:41:17;;;;;;;4.82;3.53;;;19.10;99.90;;;18.30;87.32;100959.41;4137053;28;20030;-68
2021/06/19 07:43:18;;;;;;;6.68;4.38;;;19.20;99.90;;;18.49;87.46;100972.00;4135610;28;20035;-68
2021/06/19 07:45:19;;;;;;;6.38;4.80;;;19.40;99.90;;;18.63;84.73;100971.03;4137022;28;20379;-68
2021/06/19 07:47:20;;;;;;;5.63;4.20;;;19.60;99.90;;;18.73;84.36;100983.97;4135876;28;20031;-68
2021/06/19 07:49:21;;;;;;;5.47;4.63;;;19.80;99.90;;;18.68;82.82;100978.41;4136996;28;20471;-68
2021/06/19 07:51:22;;;;;;;6.82;4.50;;;20.00;99.90;;;18.83;83.02;100962.19;4137126;28;20059;-68
2021/06/19 07:53:23;;;;;;;4.40;3.97;;;20.00;99.90;;;18.74;83.23;100957.06;4136895;28;20552;-68
2021/06/19 07:55:24;;;;;;;5.50;4.00;;;20.10;99.90;;;19.07;82.22;100948.22;4136492;28;20116;-68
2021/06/19 07:57:25;;;;;;;5.90;4.60;;;20.20;99.90;;;19.17;82.33;100937.94;4151413;28;20026;-68
2021/06/19 07:59:26;;;;;;;6.10;4.53;;;20.30;99.90;;;18.64;83.92;100929.06;4136890;28;20089;-68
2021/06/19 08:01:27;;;;;;;4.38;3.72;;;20.30;99.90;;;18.85;83.88;100915.50;4136929;28;20027;-68
2021/06/19 08:03:28;;;;;;;7.65;5.03;;;20.20;99.90;;;18.43;84.16;100942.59;4135684;28;20053;-68
2021/06/19 08:05:29;;;;;;;5.25;4.20;;;20.20;99.90;;;18.53;84.83;100946.53;4136756;28;20034;-68
2021/06/19 08:07:30;;;;;;;4.45;3.78;;;20.00;99.90;;;18.65;84.84;100944.91;4136897;28;20034;-68
2021/06/19 08:09:31;;;;;;;5.78;3.80;;;20.00;99.90;;;18.81;83.69;100945.53;4136736;28;20367;-68
2021/06/19 08:11:32;;;;;;;4.57;3.10;;;20.10;99.90;;;19.02;83.53;100956.03;4136787;28;20034;-68
2021/06/19 08:13:33;;;;;;;6.63;3.38;;;20.10;99.90;;;19.13;83.16;100944.72;4136360;28;20026;-68
2021/06/19 08:15:35;;;;;;;5.30;4.13;;;20.30;99.90;;;18.96;82.29;100956.88;4136600;28;20062;-68
2021/06/19 08:17:36;;;;;;;4.40;3.42;;;20.40;99.90;;;18.94;83.84;100958.91;4136748;28;20364;-68
2021/06/19 08:19:37;;;;;;;5.22;3.35;;;20.30;99.90;;;19.00;84.31;100966.09;4135569;28;20049;-68
2021/06/19 08:21:38;;;;;;;4.15;3.30;;;20.30;99.90;;;18.99;82.81;100954.59;4136518;28;20038;-68
2021/06/19 08:23:39;;;;;;;4.32;3.92;;;20.30;99.90;;;19.18;82.05;100950.25;4135397;28;20038;-68
2021/06/19 08:25:40;;;;;;;4.90;4.20;;;20.30;99.90;;;19.15;81.69;100948.81;4168066;28;20382;-68